sensor_id;sensor_type;location;lat;lon;timestamp;temperature;humidity
25933;DHT22;13731;51.166;4.474;2023-08-24T00:02:09;20.20;1.00
25933;DHT22;13731;51.166;4.474;2023-08-24T00:04:36;20.20;1.00
25933;DHT22;13731;51.166;4.474;2023-08-24T00:07:02;20.20;1.00
25933;DHT22;13731;51.166;4.474;2023-08-24T00:09:29;20.30;1.00
25933;DHT22;13731;51.166;4.474;2023-08-24T00:11:54;20.30;1.00
25933;DHT22;13731;51.166;4.474;2023-08-24T00:14:21;20.20;1.00
25933;DHT22;13731;51.166;4.474;2023-08-24T00:16:46;20.20;1.00
25933;DHT22;13731;51.166;4.474;2023-08-24T00:19:12;20.20;1.00
25933;DHT22;13731;51.166;4.474;2023-08-24T00:21:38;20.10;1.00
25933;DHT22;13731;51.166;4.474;2023-08-24T00:24:04;20.10;1.00
25933;DHT22;13731;51.166;4.474;2023-08-24T00:26:30;20.20;1.00
25933;DHT22;13731;51.166;4.474;2023-08-24T00:28:55;20.10;1.00
25933;DHT22;13731;51.166;4.474;2023-08-24T00:31:21;20.10;1.00
25933;DHT22;13731;51.166;4.474;2023-08-24T00:33:47;20.10;1.00
25933;DHT22;13731;51.166;4.474;2023-08-24T00:36:15;20.00;99.90
25933;DHT22;13731;51.166;4.474;2023-08-24T00:38:43;19.90;99.90
25933;DHT22;13731;51.166;4.474;2023-08-24T00:41:09;19.90;99.90
25933;DHT22;13731;51.166;4.474;2023-08-24T00:43:35;20.00;83.20
25933;DHT22;13731;51.166;4.474;2023-08-24T00:46:01;20.10;18.10
25933;DHT22;13731;51.166;4.474;2023-08-24T00:48:29;20.00;99.90
25933;DHT22;13731;51.166;4.474;2023-08-24T00:50:57;19.90;99.90
25933;DHT22;13731;51.166;4.474;2023-08-24T00:53:24;19.80;99.90
25933;DHT22;13731;51.166;4.474;2023-08-24T00:55:51;19.90;99.90
25933;DHT22;13731;51.166;4.474;2023-08-24T00:58:17;19.90;99.90
25933;DHT22;13731;51.166;4.474;2023-08-24T01:00:46;20.00;99.90
25933;DHT22;13731;51.166;4.474;2023-08-24T01:03:12;20.00;99.90
25933;DHT22;13731;51.166;4.474;2023-08-24T01:05:37;20.10;99.90
25933;DHT22;13731;51.166;4.474;2023-08-24T01:08:04;20.10;99.90
25933;DHT22;13731;51.166;4.474;2023-08-24T01:11:15;20.10;99.90
25933;DHT22;13731;51.166;4.474;2023-08-24T01:13:33;20.10;99.90
25933;DHT22;13731;51.166;4.474;2023-08-24T01:16:09;20.10;99.90
25933;DHT22;13731;51.166;4.474;2023-08-24T01:18:38;20.10;99.90
25933;DHT22;13731;51.166;4.474;2023-08-24T01:21:04;20.20;99.90
25933;DHT22;13731;51.166;4.474;2023-08-24T01:23:36;20.10;99.90
25933;DHT22;13731;51.166;4.474;2023-08-24T01:26:11;20.20;99.90
25933;DHT22;13731;51.166;4.474;2023-08-24T01:28:37;20.20;99.90
25933;DHT22;13731;51.166;4.474;2023-08-24T01:31:04;20.10;99.90
25933;DHT22;13731;51.166;4.474;2023-08-24T01:33:30;20.00;99.90
25933;DHT22;13731;51.166;4.474;2023-08-24T01:35:56;20.00;99.90
25933;DHT22;13731;51.166;4.474;2023-08-24T01:38:22;20.10;99.90
25933;DHT22;13731;51.166;4.474;2023-08-24T01:43:32;20.20;99.90
25933;DHT22;13731;51.166;4.474;2023-08-24T01:46:03;20.20;99.90
25933;DHT22;13731;51.166;4.474;2023-08-24T01:48:29;20.20;99.90
25933;DHT22;13731;51.166;4.474;2023-08-24T01:50:57;20.20;99.90
25933;DHT22;13731;51.166;4.474;2023-08-24T01:53:23;20.30;99.90
25933;DHT22;13731;51.166;4.474;2023-08-24T01:55:49;20.30;89.30
25933;DHT22;13731;51.166;4.474;2023-08-24T01:58:14;20.30;99.90
25933;DHT22;13731;51.166;4.474;2023-08-24T02:00:40;20.30;99.90
25933;DHT22;13731;51.166;4.474;2023-08-24T02:03:06;20.20;99.90
25933;DHT22;13731;51.166;4.474;2023-08-24T02:05:32;20.10;1.00
25933;DHT22;13731;51.166;4.474;2023-08-24T02:07:58;20.10;21.00
25933;DHT22;13731;51.166;4.474;2023-08-24T02:10:25;19.90;1.00
25933;DHT22;13731;51.166;4.474;2023-08-24T02:12:51;19.70;99.90
25933;DHT22;13731;51.166;4.474;2023-08-24T02:15:17;19.60;1.00
25933;DHT22;13731;51.166;4.474;2023-08-24T02:17:43;19.60;99.90
25933;DHT22;13731;51.166;4.474;2023-08-24T02:20:10;19.50;1.00
25933;DHT22;13731;51.166;4.474;2023-08-24T02:22:37;19.40;1.00
25933;DHT22;13731;51.166;4.474;2023-08-24T02:25:03;19.20;1.00
25933;DHT22;13731;51.166;4.474;2023-08-24T02:27:30;19.00;99.90
25933;DHT22;13731;51.166;4.474;2023-08-24T02:29:56;18.90;1.00
25933;DHT22;13731;51.166;4.474;2023-08-24T02:32:22;18.90;1.00
25933;DHT22;13731;51.166;4.474;2023-08-24T02:34:48;18.90;99.90
25933;DHT22;13731;51.166;4.474;2023-08-24T02:37:13;18.90;99.90
25933;DHT22;13731;51.166;4.474;2023-08-24T02:39:41;18.80;99.90
25933;DHT22;13731;51.166;4.474;2023-08-24T02:42:07;18.80;99.90
25933;DHT22;13731;51.166;4.474;2023-08-24T02:44:32;18.90;1.00
25933;DHT22;13731;51.166;4.474;2023-08-24T02:46:58;18.70;92.40
25933;DHT22;13731;51.166;4.474;2023-08-24T02:49:24;18.90;99.90
25933;DHT22;13731;51.166;4.474;2023-08-24T02:51:50;18.80;99.90
25933;DHT22;13731;51.166;4.474;2023-08-24T02:54:16;18.80;99.90
25933;DHT22;13731;51.166;4.474;2023-08-24T02:56:42;18.80;99.90
25933;DHT22;13731;51.166;4.474;2023-08-24T02:59:07;18.80;90.10
25933;DHT22;13731;51.166;4.474;2023-08-24T03:01:33;18.70;99.90
25933;DHT22;13731;51.166;4.474;2023-08-24T03:04:00;18.70;99.90
25933;DHT22;13731;51.166;4.474;2023-08-24T03:06:25;18.80;99.90
25933;DHT22;13731;51.166;4.474;2023-08-24T03:08:51;18.80;99.90
25933;DHT22;13731;51.166;4.474;2023-08-24T03:11:17;18.80;99.90
25933;DHT22;13731;51.166;4.474;2023-08-24T03:13:43;18.80;99.90
25933;DHT22;13731;51.166;4.474;2023-08-24T03:16:09;18.70;99.90
25933;DHT22;13731;51.166;4.474;2023-08-24T03:18:36;18.60;99.90
25933;DHT22;13731;51.166;4.474;2023-08-24T03:21:03;18.50;99.90
25933;DHT22;13731;51.166;4.474;2023-08-24T03:23:32;18.50;99.90
25933;DHT22;13731;51.166;4.474;2023-08-24T03:25:58;18.50;99.90
25933;DHT22;13731;51.166;4.474;2023-08-24T03:28:24;18.40;99.90
25933;DHT22;13731;51.166;4.474;2023-08-24T03:30:51;18.40;99.90
25933;DHT22;13731;51.166;4.474;2023-08-24T03:33:17;18.50;99.90
25933;DHT22;13731;51.166;4.474;2023-08-24T03:35:43;18.40;69.10
25933;DHT22;13731;51.166;4.474;2023-08-24T03:38:09;18.40;1.00
25933;DHT22;13731;51.166;4.474;2023-08-24T03:40:34;18.40;36.10
25933;DHT22;13731;51.166;4.474;2023-08-24T03:43:03;18.30;99.90
25933;DHT22;13731;51.166;4.474;2023-08-24T03:45:29;18.30;99.90
25933;DHT22;13731;51.166;4.474;2023-08-24T03:47:55;18.30;99.90
25933;DHT22;13731;51.166;4.474;2023-08-24T03:50:21;18.20;99.90
25933;DHT22;13731;51.166;4.474;2023-08-24T03:52:49;18.30;99.90
25933;DHT22;13731;51.166;4.474;2023-08-24T03:55:15;18.30;89.20
25933;DHT22;13731;51.166;4.474;2023-08-24T03:57:42;18.30;79.30
25933;DHT22;13731;51.166;4.474;2023-08-24T04:00:08;18.20;1.00
25933;DHT22;13731;51.166;4.474;2023-08-24T04:02:41;18.20;1.00
25933;DHT22;13731;51.166;4.474;2023-08-24T04:05:08;18.30;1.00
25933;DHT22;13731;51.166;4.474;2023-08-24T04:07:34;18.30;99.90
25933;DHT22;13731;51.166;4.474;2023-08-24T04:10:04;18.30;99.90
25933;DHT22;13731;51.166;4.474;2023-08-24T04:12:33;18.40;1.00
25933;DHT22;13731;51.166;4.474;2023-08-24T04:15:00;18.40;1.00
25933;DHT22;13731;51.166;4.474;2023-08-24T04:17:26;18.30;99.90
25933;DHT22;13731;51.166;4.474;2023-08-24T04:19:51;18.50;25.00
25933;DHT22;13731;51.166;4.474;2023-08-24T04:22:18;18.60;99.90
25933;DHT22;13731;51.166;4.474;2023-08-24T04:24:44;18.60;99.90
25933;DHT22;13731;51.166;4.474;2023-08-24T04:27:10;18.50;99.90
25933;DHT22;13731;51.166;4.474;2023-08-24T04:29:36;18.40;99.90
25933;DHT22;13731;51.166;4.474;2023-08-24T04:32:01;18.30;1.00
25933;DHT22;13731;51.166;4.474;2023-08-24T04:34:27;18.40;99.90
25933;DHT22;13731;51.166;4.474;2023-08-24T04:36:53;18.40;34.60
25933;DHT22;13731;51.166;4.474;2023-08-24T04:39:20;18.40;99.90
25933;DHT22;13731;51.166;4.474;2023-08-24T04:41:45;18.50;99.90
25933;DHT22;13731;51.166;4.474;2023-08-24T04:44:11;18.40;1.00
25933;DHT22;13731;51.166;4.474;2023-08-24T04:46:37;18.30;1.00
25933;DHT22;13731;51.166;4.474;2023-08-24T04:49:03;18.30;99.90
25933;DHT22;13731;51.166;4.474;2023-08-24T04:51:29;18.20;99.90
25933;DHT22;13731;51.166;4.474;2023-08-24T04:53:55;18.20;99.90
25933;DHT22;13731;51.166;4.474;2023-08-24T04:56:21;18.30;1.00
25933;DHT22;13731;51.166;4.474;2023-08-24T04:58:56;18.30;1.00
25933;DHT22;13731;51.166;4.474;2023-08-24T05:01:24;18.40;99.90
25933;DHT22;13731;51.166;4.474;2023-08-24T05:03:51;18.40;99.90
25933;DHT22;13731;51.166;4.474;2023-08-24T05:06:17;18.40;99.90
25933;DHT22;13731;51.166;4.474;2023-08-24T05:08:43;18.30;1.00
25933;DHT22;13731;51.166;4.474;2023-08-24T05:11:18;18.40;99.90
25933;DHT22;13731;51.166;4.474;2023-08-24T05:13:44;18.50;99.90
25933;DHT22;13731;51.166;4.474;2023-08-24T05:16:11;18.50;99.90
25933;DHT22;13731;51.166;4.474;2023-08-24T05:18:37;18.60;99.90
25933;DHT22;13731;51.166;4.474;2023-08-24T05:21:03;18.70;99.90
25933;DHT22;13731;51.166;4.474;2023-08-24T05:23:32;18.60;1.00
25933;DHT22;13731;51.166;4.474;2023-08-24T05:25:58;18.40;99.90
25933;DHT22;13731;51.166;4.474;2023-08-24T05:28:25;18.40;99.90
25933;DHT22;13731;51.166;4.474;2023-08-24T05:30:51;18.40;99.90
25933;DHT22;13731;51.166;4.474;2023-08-24T05:33:17;18.30;99.90
25933;DHT22;13731;51.166;4.474;2023-08-24T05:35:42;18.50;99.90
25933;DHT22;13731;51.166;4.474;2023-08-24T05:38:08;18.60;99.90
25933;DHT22;13731;51.166;4.474;2023-08-24T05:40:34;18.60;1.00
25933;DHT22;13731;51.166;4.474;2023-08-24T05:43:00;18.60;19.10
25933;DHT22;13731;51.166;4.474;2023-08-24T05:45:26;18.60;3.50
25933;DHT22;13731;51.166;4.474;2023-08-24T05:47:52;18.60;1.00
25933;DHT22;13731;51.166;4.474;2023-08-24T05:50:17;18.60;1.00
25933;DHT22;13731;51.166;4.474;2023-08-24T05:52:43;18.60;1.00
25933;DHT22;13731;51.166;4.474;2023-08-24T05:55:10;18.60;99.90
25933;DHT22;13731;51.166;4.474;2023-08-24T05:57:35;18.60;99.90
25933;DHT22;13731;51.166;4.474;2023-08-24T06:00:01;18.70;99.90
25933;DHT22;13731;51.166;4.474;2023-08-24T06:02:27;18.70;1.00
25933;DHT22;13731;51.166;4.474;2023-08-24T06:04:53;18.80;1.00
25933;DHT22;13731;51.166;4.474;2023-08-24T06:07:18;19.10;1.00
25933;DHT22;13731;51.166;4.474;2023-08-24T06:09:44;19.10;44.80
25933;DHT22;13731;51.166;4.474;2023-08-24T06:12:10;19.30;1.00
25933;DHT22;13731;51.166;4.474;2023-08-24T06:14:36;19.30;1.00
25933;DHT22;13731;51.166;4.474;2023-08-24T06:17:01;19.20;1.00
25933;DHT22;13731;51.166;4.474;2023-08-24T06:19:27;19.40;99.90
25933;DHT22;13731;51.166;4.474;2023-08-24T06:21:53;19.40;1.00
25933;DHT22;13731;51.166;4.474;2023-08-24T06:24:19;19.60;1.00
25933;DHT22;13731;51.166;4.474;2023-08-24T06:26:44;19.80;1.00
25933;DHT22;13731;51.166;4.474;2023-08-24T06:29:10;19.80;99.90
25933;DHT22;13731;51.166;4.474;2023-08-24T06:31:36;19.90;99.90
25933;DHT22;13731;51.166;4.474;2023-08-24T06:34:01;20.00;80.20
25933;DHT22;13731;51.166;4.474;2023-08-24T06:36:27;20.00;99.90
25933;DHT22;13731;51.166;4.474;2023-08-24T06:38:54;20.00;1.00
25933;DHT22;13731;51.166;4.474;2023-08-24T06:41:20;20.00;99.90
25933;DHT22;13731;51.166;4.474;2023-08-24T06:43:45;20.30;99.90
25933;DHT22;13731;51.166;4.474;2023-08-24T06:46:11;20.30;59.90
25933;DHT22;13731;51.166;4.474;2023-08-24T06:48:37;20.40;1.00
25933;DHT22;13731;51.166;4.474;2023-08-24T06:51:03;20.50;1.00
25933;DHT22;13731;51.166;4.474;2023-08-24T06:53:29;20.70;99.90
25933;DHT22;13731;51.166;4.474;2023-08-24T06:55:55;20.90;1.00
25933;DHT22;13731;51.166;4.474;2023-08-24T06:58:21;21.00;1.00
25933;DHT22;13731;51.166;4.474;2023-08-24T07:00:48;21.10;1.00
25933;DHT22;13731;51.166;4.474;2023-08-24T07:03:16;21.30;99.90
25933;DHT22;13731;51.166;4.474;2023-08-24T07:05:43;21.50;99.90
25933;DHT22;13731;51.166;4.474;2023-08-24T07:08:09;21.90;9.90
25933;DHT22;13731;51.166;4.474;2023-08-24T07:10:34;21.80;86.90
25933;DHT22;13731;51.166;4.474;2023-08-24T07:13:00;21.60;99.90
25933;DHT22;13731;51.166;4.474;2023-08-24T07:15:26;21.80;1.00
25933;DHT22;13731;51.166;4.474;2023-08-24T07:17:52;22.00;1.00
25933;DHT22;13731;51.166;4.474;2023-08-24T07:20:17;22.40;99.90
25933;DHT22;13731;51.166;4.474;2023-08-24T07:22:43;22.50;1.00
25933;DHT22;13731;51.166;4.474;2023-08-24T07:25:09;22.80;1.00
25933;DHT22;13731;51.166;4.474;2023-08-24T07:27:36;22.70;1.00
25933;DHT22;13731;51.166;4.474;2023-08-24T07:30:02;22.90;1.00
25933;DHT22;13731;51.166;4.474;2023-08-24T07:32:31;23.10;1.00
25933;DHT22;13731;51.166;4.474;2023-08-24T07:34:57;23.30;99.90
25933;DHT22;13731;51.166;4.474;2023-08-24T07:37:25;23.40;99.90
25933;DHT22;13731;51.166;4.474;2023-08-24T07:39:51;23.60;1.00
25933;DHT22;13731;51.166;4.474;2023-08-24T07:42:19;23.50;93.00
25933;DHT22;13731;51.166;4.474;2023-08-24T07:44:45;23.60;99.90
25933;DHT22;13731;51.166;4.474;2023-08-24T07:47:11;23.70;99.90
25933;DHT22;13731;51.166;4.474;2023-08-24T07:49:37;23.50;99.90
25933;DHT22;13731;51.166;4.474;2023-08-24T07:52:05;23.70;99.90
25933;DHT22;13731;51.166;4.474;2023-08-24T07:54:31;23.50;99.90
25933;DHT22;13731;51.166;4.474;2023-08-24T07:56:57;23.70;99.90
25933;DHT22;13731;51.166;4.474;2023-08-24T07:59:22;23.80;99.90
25933;DHT22;13731;51.166;4.474;2023-08-24T08:01:48;23.70;1.00
25933;DHT22;13731;51.166;4.474;2023-08-24T08:04:14;23.90;99.90
25933;DHT22;13731;51.166;4.474;2023-08-24T08:06:39;24.00;32.20
25933;DHT22;13731;51.166;4.474;2023-08-24T08:09:05;23.80;1.00
25933;DHT22;13731;51.166;4.474;2023-08-24T08:11:31;23.80;82.50
25933;DHT22;13731;51.166;4.474;2023-08-24T08:13:57;23.40;99.90
25933;DHT22;13731;51.166;4.474;2023-08-24T08:16:22;23.30;99.90
25933;DHT22;13731;51.166;4.474;2023-08-24T08:18:48;22.90;1.00
25933;DHT22;13731;51.166;4.474;2023-08-24T08:21:17;23.10;1.00
25933;DHT22;13731;51.166;4.474;2023-08-24T08:23:45;23.40;99.90
25933;DHT22;13731;51.166;4.474;2023-08-24T08:26:12;23.20;99.90
25933;DHT22;13731;51.166;4.474;2023-08-24T08:28:39;23.30;99.90
25933;DHT22;13731;51.166;4.474;2023-08-24T08:31:05;23.40;99.90
25933;DHT22;13731;51.166;4.474;2023-08-24T08:33:31;23.60;99.90
25933;DHT22;13731;51.166;4.474;2023-08-24T08:35:57;23.80;99.90
25933;DHT22;13731;51.166;4.474;2023-08-24T08:38:23;23.90;99.90
25933;DHT22;13731;51.166;4.474;2023-08-24T08:40:51;23.90;99.90
25933;DHT22;13731;51.166;4.474;2023-08-24T08:43:19;24.00;99.90
25933;DHT22;13731;51.166;4.474;2023-08-24T08:45:46;24.20;99.90
25933;DHT22;13731;51.166;4.474;2023-08-24T08:48:12;24.40;21.30
25933;DHT22;13731;51.166;4.474;2023-08-24T08:50:38;24.40;1.00
25933;DHT22;13731;51.166;4.474;2023-08-24T08:53:04;24.50;1.00
25933;DHT22;13731;51.166;4.474;2023-08-24T08:55:30;24.70;1.00
25933;DHT22;13731;51.166;4.474;2023-08-24T08:57:56;24.80;1.00
25933;DHT22;13731;51.166;4.474;2023-08-24T09:00:23;24.10;1.00
25933;DHT22;13731;51.166;4.474;2023-08-24T09:02:49;24.20;1.00
25933;DHT22;13731;51.166;4.474;2023-08-24T09:05:17;24.20;1.00
25933;DHT22;13731;51.166;4.474;2023-08-24T09:07:42;24.30;1.00
25933;DHT22;13731;51.166;4.474;2023-08-24T09:10:08;24.40;1.00
25933;DHT22;13731;51.166;4.474;2023-08-24T09:12:34;24.10;1.00
25933;DHT22;13731;51.166;4.474;2023-08-24T09:15:06;24.20;40.60
25933;DHT22;13731;51.166;4.474;2023-08-24T09:17:35;23.90;31.60
25933;DHT22;13731;51.166;4.474;2023-08-24T09:20:05;24.20;92.40
25933;DHT22;13731;51.166;4.474;2023-08-24T09:22:36;23.90;99.90
25933;DHT22;13731;51.166;4.474;2023-08-24T09:25:02;24.10;99.90
25933;DHT22;13731;51.166;4.474;2023-08-24T09:27:30;24.20;68.30
25933;DHT22;13731;51.166;4.474;2023-08-24T09:29:57;24.00;99.90
25933;DHT22;13731;51.166;4.474;2023-08-24T09:32:31;23.90;99.90
25933;DHT22;13731;51.166;4.474;2023-08-24T09:35:07;23.80;99.90
25933;DHT22;13731;51.166;4.474;2023-08-24T09:37:33;23.80;99.90
25933;DHT22;13731;51.166;4.474;2023-08-24T09:40:06;24.00;99.90
25933;DHT22;13731;51.166;4.474;2023-08-24T09:42:38;24.20;93.30
25933;DHT22;13731;51.166;4.474;2023-08-24T09:45:05;24.30;62.90
25933;DHT22;13731;51.166;4.474;2023-08-24T09:47:31;24.30;39.30
25933;DHT22;13731;51.166;4.474;2023-08-24T09:49:56;24.00;97.10
25933;DHT22;13731;51.166;4.474;2023-08-24T09:52:22;23.90;99.90
25933;DHT22;13731;51.166;4.474;2023-08-24T09:54:50;23.60;99.90
25933;DHT22;13731;51.166;4.474;2023-08-24T09:57:17;23.20;1.00
25933;DHT22;13731;51.166;4.474;2023-08-24T09:59:43;23.00;99.90
25933;DHT22;13731;51.166;4.474;2023-08-24T10:02:15;22.80;99.90
25933;DHT22;13731;51.166;4.474;2023-08-24T10:04:41;22.60;1.00
25933;DHT22;13731;51.166;4.474;2023-08-24T10:07:08;22.50;1.00
25933;DHT22;13731;51.166;4.474;2023-08-24T10:09:53;22.50;1.00
25933;DHT22;13731;51.166;4.474;2023-08-24T10:12:23;22.40;1.00
25933;DHT22;13731;51.166;4.474;2023-08-24T10:14:58;22.40;1.00
25933;DHT22;13731;51.166;4.474;2023-08-24T10:17:25;22.30;1.00
25933;DHT22;13731;51.166;4.474;2023-08-24T10:19:52;22.10;1.00
25933;DHT22;13731;51.166;4.474;2023-08-24T10:22:21;22.10;99.90
25933;DHT22;13731;51.166;4.474;2023-08-24T10:24:47;21.80;51.50
25933;DHT22;13731;51.166;4.474;2023-08-24T10:27:14;21.60;7.10
25933;DHT22;13731;51.166;4.474;2023-08-24T10:29:40;21.50;1.00
25933;DHT22;13731;51.166;4.474;2023-08-24T10:32:06;21.40;99.90
25933;DHT22;13731;51.166;4.474;2023-08-24T10:34:32;21.30;99.90
25933;DHT22;13731;51.166;4.474;2023-08-24T10:37:06;21.00;83.30
25933;DHT22;13731;51.166;4.474;2023-08-24T10:39:33;21.10;1.00
25933;DHT22;13731;51.166;4.474;2023-08-24T10:42:00;21.10;99.90
25933;DHT22;13731;51.166;4.474;2023-08-24T10:44:36;21.10;99.90
25933;DHT22;13731;51.166;4.474;2023-08-24T10:47:12;21.10;1.00
25933;DHT22;13731;51.166;4.474;2023-08-24T10:49:39;20.90;99.90
25933;DHT22;13731;51.166;4.474;2023-08-24T10:52:17;20.90;99.90
25933;DHT22;13731;51.166;4.474;2023-08-24T10:54:48;20.90;99.90
25933;DHT22;13731;51.166;4.474;2023-08-24T10:57:17;21.10;99.90
25933;DHT22;13731;51.166;4.474;2023-08-24T10:59:45;21.10;99.90
25933;DHT22;13731;51.166;4.474;2023-08-24T11:02:17;21.00;99.90
25933;DHT22;13731;51.166;4.474;2023-08-24T11:07:49;21.10;1.00
25933;DHT22;13731;51.166;4.474;2023-08-24T11:10:16;21.30;99.90
25933;DHT22;13731;51.166;4.474;2023-08-24T11:15:33;21.90;99.90
25933;DHT22;13731;51.166;4.474;2023-08-24T11:20:59;22.90;99.90
25933;DHT22;13731;51.166;4.474;2023-08-24T11:23:25;23.30;1.00
25933;DHT22;13731;51.166;4.474;2023-08-24T11:25:52;24.10;1.00
25933;DHT22;13731;51.166;4.474;2023-08-24T11:28:26;25.20;1.00
25933;DHT22;13731;51.166;4.474;2023-08-24T11:30:52;26.10;1.00
25933;DHT22;13731;51.166;4.474;2023-08-24T11:33:26;25.90;99.90
25933;DHT22;13731;51.166;4.474;2023-08-24T11:35:53;26.50;99.90
25933;DHT22;13731;51.166;4.474;2023-08-24T11:38:20;26.80;1.00
25933;DHT22;13731;51.166;4.474;2023-08-24T11:40:45;26.70;99.90
25933;DHT22;13731;51.166;4.474;2023-08-24T11:43:11;26.70;1.00
25933;DHT22;13731;51.166;4.474;2023-08-24T11:45:37;26.20;1.00
25933;DHT22;13731;51.166;4.474;2023-08-24T11:48:04;26.30;99.90
25933;DHT22;13731;51.166;4.474;2023-08-24T11:50:31;26.60;98.70
25933;DHT22;13731;51.166;4.474;2023-08-24T11:52:57;27.10;1.00
25933;DHT22;13731;51.166;4.474;2023-08-24T11:55:24;27.30;1.00
25933;DHT22;13731;51.166;4.474;2023-08-24T11:57:50;27.50;1.00
25933;DHT22;13731;51.166;4.474;2023-08-24T12:00:17;27.50;1.00
25933;DHT22;13731;51.166;4.474;2023-08-24T12:02:44;26.90;1.00
25933;DHT22;13731;51.166;4.474;2023-08-24T12:05:22;26.80;1.00
25933;DHT22;13731;51.166;4.474;2023-08-24T12:07:48;26.30;1.00
25933;DHT22;13731;51.166;4.474;2023-08-24T12:10:14;25.60;99.90
25933;DHT22;13731;51.166;4.474;2023-08-24T12:12:40;25.20;99.90
25933;DHT22;13731;51.166;4.474;2023-08-24T12:15:06;25.10;1.00
25933;DHT22;13731;51.166;4.474;2023-08-24T12:17:41;25.10;1.00
25933;DHT22;13731;51.166;4.474;2023-08-24T12:20:07;25.00;1.00
25933;DHT22;13731;51.166;4.474;2023-08-24T12:22:38;25.00;1.00
25933;DHT22;13731;51.166;4.474;2023-08-24T12:25:04;24.60;99.90
25933;DHT22;13731;51.166;4.474;2023-08-24T12:27:31;24.10;99.90
25933;DHT22;13731;51.166;4.474;2023-08-24T12:30:00;24.20;99.90
25933;DHT22;13731;51.166;4.474;2023-08-24T12:32:30;24.30;99.90
25933;DHT22;13731;51.166;4.474;2023-08-24T12:35:07;24.30;61.00
25933;DHT22;13731;51.166;4.474;2023-08-24T12:37:32;24.40;19.80
25933;DHT22;13731;51.166;4.474;2023-08-24T12:39:59;24.50;1.00
25933;DHT22;13731;51.166;4.474;2023-08-24T12:42:25;24.50;1.00
25933;DHT22;13731;51.166;4.474;2023-08-24T12:44:51;24.30;99.90
25933;DHT22;13731;51.166;4.474;2023-08-24T12:47:17;24.30;1.00
25933;DHT22;13731;51.166;4.474;2023-08-24T12:49:42;24.30;1.00
25933;DHT22;13731;51.166;4.474;2023-08-24T12:52:08;24.60;99.90
25933;DHT22;13731;51.166;4.474;2023-08-24T12:54:34;24.80;99.90
25933;DHT22;13731;51.166;4.474;2023-08-24T12:56:59;24.60;1.00
25933;DHT22;13731;51.166;4.474;2023-08-24T12:59:25;24.30;99.90
25933;DHT22;13731;51.166;4.474;2023-08-24T13:01:51;23.90;99.90
25933;DHT22;13731;51.166;4.474;2023-08-24T13:04:16;23.90;99.90
25933;DHT22;13731;51.166;4.474;2023-08-24T13:06:42;23.70;1.00
25933;DHT22;13731;51.166;4.474;2023-08-24T13:09:08;23.70;1.00
25933;DHT22;13731;51.166;4.474;2023-08-24T13:11:34;23.60;47.70
25933;DHT22;13731;51.166;4.474;2023-08-24T13:14:00;23.60;99.90
25933;DHT22;13731;51.166;4.474;2023-08-24T13:16:26;23.30;99.90
25933;DHT22;13731;51.166;4.474;2023-08-24T13:18:53;23.20;1.00
25933;DHT22;13731;51.166;4.474;2023-08-24T13:21:19;23.00;99.90
25933;DHT22;13731;51.166;4.474;2023-08-24T13:23:46;22.90;1.00
25933;DHT22;13731;51.166;4.474;2023-08-24T13:26:18;22.80;99.90
25933;DHT22;13731;51.166;4.474;2023-08-24T13:28:48;22.90;99.90
25933;DHT22;13731;51.166;4.474;2023-08-24T13:31:14;23.10;1.00
25933;DHT22;13731;51.166;4.474;2023-08-24T13:33:40;23.10;99.90
25933;DHT22;13731;51.166;4.474;2023-08-24T13:36:06;23.20;99.90
25933;DHT22;13731;51.166;4.474;2023-08-24T13:38:31;23.20;99.90
25933;DHT22;13731;51.166;4.474;2023-08-24T13:40:57;23.20;94.80
25933;DHT22;13731;51.166;4.474;2023-08-24T13:43:23;23.10;99.90
25933;DHT22;13731;51.166;4.474;2023-08-24T13:45:49;23.30;99.90
25933;DHT22;13731;51.166;4.474;2023-08-24T13:48:14;23.50;1.00
25933;DHT22;13731;51.166;4.474;2023-08-24T13:50:41;23.40;1.00
25933;DHT22;13731;51.166;4.474;2023-08-24T13:53:06;23.20;99.90
25933;DHT22;13731;51.166;4.474;2023-08-24T13:55:32;23.10;99.90
25933;DHT22;13731;51.166;4.474;2023-08-24T13:57:58;23.20;1.00
25933;DHT22;13731;51.166;4.474;2023-08-24T14:00:25;23.50;76.80
25933;DHT22;13731;51.166;4.474;2023-08-24T14:02:50;23.60;84.00
25933;DHT22;13731;51.166;4.474;2023-08-24T14:05:16;23.80;1.00
25933;DHT22;13731;51.166;4.474;2023-08-24T14:07:42;23.60;99.90
25933;DHT22;13731;51.166;4.474;2023-08-24T14:10:08;23.70;1.00
25933;DHT22;13731;51.166;4.474;2023-08-24T14:12:33;23.90;99.90
25933;DHT22;13731;51.166;4.474;2023-08-24T14:15:00;24.00;99.90
25933;DHT22;13731;51.166;4.474;2023-08-24T14:17:26;24.00;99.90
25933;DHT22;13731;51.166;4.474;2023-08-24T14:19:52;24.20;1.00
25933;DHT22;13731;51.166;4.474;2023-08-24T14:22:17;24.40;1.00
25933;DHT22;13731;51.166;4.474;2023-08-24T14:24:43;24.60;99.90
25933;DHT22;13731;51.166;4.474;2023-08-24T14:27:09;24.90;99.90
25933;DHT22;13731;51.166;4.474;2023-08-24T14:29:35;25.10;9.80
25933;DHT22;13731;51.166;4.474;2023-08-24T14:32:00;25.00;42.80
25933;DHT22;13731;51.166;4.474;2023-08-24T14:34:26;24.90;56.10
25933;DHT22;13731;51.166;4.474;2023-08-24T14:36:52;24.40;99.90
25933;DHT22;13731;51.166;4.474;2023-08-24T14:39:19;24.40;99.90
25933;DHT22;13731;51.166;4.474;2023-08-24T14:41:44;24.30;99.90
25933;DHT22;13731;51.166;4.474;2023-08-24T14:44:10;24.30;99.90
25933;DHT22;13731;51.166;4.474;2023-08-24T14:46:36;24.10;99.90
25933;DHT22;13731;51.166;4.474;2023-08-24T14:49:02;24.10;1.00
25933;DHT22;13731;51.166;4.474;2023-08-24T14:51:28;24.10;99.90
25933;DHT22;13731;51.166;4.474;2023-08-24T14:53:54;24.10;99.90
25933;DHT22;13731;51.166;4.474;2023-08-24T14:56:20;24.30;99.90
25933;DHT22;13731;51.166;4.474;2023-08-24T14:58:46;24.30;99.90
25933;DHT22;13731;51.166;4.474;2023-08-24T15:01:12;24.10;99.90
25933;DHT22;13731;51.166;4.474;2023-08-24T15:03:38;24.20;99.90
25933;DHT22;13731;51.166;4.474;2023-08-24T15:06:04;24.40;99.90
25933;DHT22;13731;51.166;4.474;2023-08-24T15:08:31;24.60;99.90
25933;DHT22;13731;51.166;4.474;2023-08-24T15:10:57;24.40;70.70
25933;DHT22;13731;51.166;4.474;2023-08-24T15:13:23;24.50;99.90
25933;DHT22;13731;51.166;4.474;2023-08-24T15:15:49;24.40;99.90
25933;DHT22;13731;51.166;4.474;2023-08-24T15:18:15;24.40;99.90
25933;DHT22;13731;51.166;4.474;2023-08-24T15:20:41;24.70;99.90
25933;DHT22;13731;51.166;4.474;2023-08-24T15:23:07;24.90;1.00
25933;DHT22;13731;51.166;4.474;2023-08-24T15:25:33;25.20;1.00
25933;DHT22;13731;51.166;4.474;2023-08-24T15:27:59;25.30;1.00
25933;DHT22;13731;51.166;4.474;2023-08-24T15:30:25;25.20;1.00
25933;DHT22;13731;51.166;4.474;2023-08-24T15:32:51;25.50;1.00
25933;DHT22;13731;51.166;4.474;2023-08-24T15:35:16;25.90;1.00
25933;DHT22;13731;51.166;4.474;2023-08-24T15:37:42;25.90;99.90
25933;DHT22;13731;51.166;4.474;2023-08-24T15:40:08;25.90;99.90
25933;DHT22;13731;51.166;4.474;2023-08-24T15:42:36;25.70;99.90
25933;DHT22;13731;51.166;4.474;2023-08-24T15:45:02;25.80;99.90